Montreal, Missouri
Current Conditions -  °F | °C
As of 8:55 AM on Thursday 30 Oct 2014 (Local Time) from KH21 Reporting Station
Overcast Overcast  
Wind Chill: 52°   Ceiling: 11000
Heat Index: 52°   Visibility: 10mi
Dew Point: 36°   Wind: 8mph
Humidity: 54%   Direction: 180°S
Pressure: 30.09"   Gusts: NA
Location:  37.97°N, 92.59°W
Report Text: KH21 301355Z AUTO 18007KT 10SM OVC110 11/02 A3009 RMK AO2
Loading
Personal Weather Stations






























Interactive Weather Map
Tropical Storm Tracking
New forecast layout! Learn more

10-Day Weather Forecast

Advertisements
Track Severe Weather on mobile